sensor_id;sensor_type;location;lat;lon;timestamp;P1;durP1;ratioP1;P2;durP2;ratioP2
76597;SDS011;65486;53.144;18.134;2023-09-19T00:00:48;24.50;;;15.70;;
76597;SDS011;65486;53.144;18.134;2023-09-19T00:03:35;23.80;;;17.20;;
76597;SDS011;65486;53.144;18.134;2023-09-19T00:06:04;24.70;;;16.90;;
76597;SDS011;65486;53.144;18.134;2023-09-19T00:08:34;27.80;;;17.80;;
76597;SDS011;65486;53.144;18.134;2023-09-19T00:11:01;24.20;;;17.50;;
76597;SDS011;65486;53.144;18.134;2023-09-19T00:13:31;28.90;;;17.80;;
76597;SDS011;65486;53.144;18.134;2023-09-19T00:16:08;23.00;;;16.90;;
76597;SDS011;65486;53.144;18.134;2023-09-19T00:18:37;23.60;;;17.60;;
76597;SDS011;65486;53.144;18.134;2023-09-19T00:21:05;24.40;;;18.20;;
76597;SDS011;65486;53.144;18.134;2023-09-19T00:23:34;24.70;;;18.40;;
76597;SDS011;65486;53.144;18.134;2023-09-19T00:26:01;25.10;;;17.30;;
76597;SDS011;65486;53.144;18.134;2023-09-19T00:28:28;28.00;;;17.90;;
76597;SDS011;65486;53.144;18.134;2023-09-19T00:30:56;24.50;;;17.40;;
76597;SDS011;65486;53.144;18.134;2023-09-19T00:33:23;24.10;;;16.80;;
76597;SDS011;65486;53.144;18.134;2023-09-19T00:35:51;25.00;;;17.40;;
76597;SDS011;65486;53.144;18.134;2023-09-19T00:38:20;22.30;;;16.40;;
76597;SDS011;65486;53.144;18.134;2023-09-19T00:40:49;23.20;;;16.10;;
76597;SDS011;65486;53.144;18.134;2023-09-19T00:43:20;26.80;;;18.20;;
76597;SDS011;65486;53.144;18.134;2023-09-19T00:45:48;22.80;;;17.90;;
76597;SDS011;65486;53.144;18.134;2023-09-19T00:48:17;23.20;;;17.10;;
76597;SDS011;65486;53.144;18.134;2023-09-19T00:50:47;24.00;;;16.30;;
76597;SDS011;65486;53.144;18.134;2023-09-19T00:53:17;28.30;;;17.70;;
76597;SDS011;65486;53.144;18.134;2023-09-19T00:55:47;22.20;;;16.80;;
76597;SDS011;65486;53.144;18.134;2023-09-19T00:58:16;23.40;;;18.00;;
76597;SDS011;65486;53.144;18.134;2023-09-19T01:00:44;24.20;;;16.60;;
76597;SDS011;65486;53.144;18.134;2023-09-19T01:03:13;21.80;;;17.50;;
76597;SDS011;65486;53.144;18.134;2023-09-19T01:05:41;22.10;;;16.00;;
76597;SDS011;65486;53.144;18.134;2023-09-19T01:08:09;22.30;;;15.30;;
76597;SDS011;65486;53.144;18.134;2023-09-19T01:10:47;21.40;;;15.80;;
76597;SDS011;65486;53.144;18.134;2023-09-19T01:13:26;20.10;;;14.60;;
76597;SDS011;65486;53.144;18.134;2023-09-19T01:21:55;15.00;;;11.30;;
76597;SDS011;65486;53.144;18.134;2023-09-19T01:27:33;14.40;;;10.70;;
76597;SDS011;65486;53.144;18.134;2023-09-19T01:30:24;12.40;;;8.70;;
76597;SDS011;65486;53.144;18.134;2023-09-19T01:32:56;13.10;;;8.20;;
76597;SDS011;65486;53.144;18.134;2023-09-19T01:35:24;12.70;;;8.70;;
76597;SDS011;65486;53.144;18.134;2023-09-19T01:37:52;12.80;;;8.90;;
76597;SDS011;65486;53.144;18.134;2023-09-19T01:40:21;12.10;;;7.50;;
76597;SDS011;65486;53.144;18.134;2023-09-19T01:42:56;9.00;;;5.00;;
76597;SDS011;65486;53.144;18.134;2023-09-19T01:48:00;7.70;;;4.30;;
76597;SDS011;65486;53.144;18.134;2023-09-19T01:50:59;7.70;;;4.40;;
76597;SDS011;65486;53.144;18.134;2023-09-19T01:56:35;8.40;;;4.50;;
76597;SDS011;65486;53.144;18.134;2023-09-19T01:59:07;8.10;;;3.80;;
76597;SDS011;65486;53.144;18.134;2023-09-19T02:01:40;5.90;;;3.90;;
76597;SDS011;65486;53.144;18.134;2023-09-19T02:04:11;7.70;;;3.70;;
76597;SDS011;65486;53.144;18.134;2023-09-19T02:06:41;7.90;;;4.10;;
76597;SDS011;65486;53.144;18.134;2023-09-19T02:09:08;8.50;;;4.10;;
76597;SDS011;65486;53.144;18.134;2023-09-19T02:11:36;7.00;;;3.80;;
76597;SDS011;65486;53.144;18.134;2023-09-19T02:14:04;8.50;;;3.70;;
76597;SDS011;65486;53.144;18.134;2023-09-19T02:16:35;6.60;;;3.60;;
76597;SDS011;65486;53.144;18.134;2023-09-19T02:19:02;5.90;;;3.70;;
76597;SDS011;65486;53.144;18.134;2023-09-19T02:21:33;6.60;;;3.60;;
76597;SDS011;65486;53.144;18.134;2023-09-19T02:24:01;7.40;;;3.40;;
76597;SDS011;65486;53.144;18.134;2023-09-19T02:26:31;6.90;;;3.50;;
76597;SDS011;65486;53.144;18.134;2023-09-19T02:28:57;6.50;;;3.40;;
76597;SDS011;65486;53.144;18.134;2023-09-19T02:31:26;7.70;;;3.60;;
76597;SDS011;65486;53.144;18.134;2023-09-19T02:33:56;6.50;;;3.10;;
76597;SDS011;65486;53.144;18.134;2023-09-19T02:36:23;7.10;;;3.30;;
76597;SDS011;65486;53.144;18.134;2023-09-19T02:38:50;8.10;;;3.40;;
76597;SDS011;65486;53.144;18.134;2023-09-19T02:41:17;6.40;;;3.60;;
76597;SDS011;65486;53.144;18.134;2023-09-19T02:43:44;7.70;;;3.70;;
76597;SDS011;65486;53.144;18.134;2023-09-19T02:46:11;8.40;;;3.60;;
76597;SDS011;65486;53.144;18.134;2023-09-19T02:48:39;6.80;;;3.10;;
76597;SDS011;65486;53.144;18.134;2023-09-19T02:51:06;5.80;;;3.80;;
76597;SDS011;65486;53.144;18.134;2023-09-19T02:53:34;8.20;;;4.00;;
76597;SDS011;65486;53.144;18.134;2023-09-19T02:56:02;7.70;;;3.80;;
76597;SDS011;65486;53.144;18.134;2023-09-19T02:58:30;7.50;;;4.20;;
76597;SDS011;65486;53.144;18.134;2023-09-19T03:01:11;7.10;;;4.40;;
76597;SDS011;65486;53.144;18.134;2023-09-19T03:03:39;10.60;;;4.10;;
76597;SDS011;65486;53.144;18.134;2023-09-19T03:06:06;8.50;;;4.80;;
76597;SDS011;65486;53.144;18.134;2023-09-19T03:08:36;10.40;;;5.50;;
76597;SDS011;65486;53.144;18.134;2023-09-19T03:11:04;16.00;;;5.80;;
76597;SDS011;65486;53.144;18.134;2023-09-19T03:13:37;12.60;;;4.90;;
76597;SDS011;65486;53.144;18.134;2023-09-19T03:16:08;14.80;;;6.20;;
76597;SDS011;65486;53.144;18.134;2023-09-19T03:18:35;11.50;;;6.40;;
76597;SDS011;65486;53.144;18.134;2023-09-19T03:21:02;11.60;;;6.50;;
76597;SDS011;65486;53.144;18.134;2023-09-19T03:23:29;11.10;;;6.80;;
76597;SDS011;65486;53.144;18.134;2023-09-19T03:25:56;15.00;;;7.70;;
76597;SDS011;65486;53.144;18.134;2023-09-19T03:28:25;10.30;;;6.30;;
76597;SDS011;65486;53.144;18.134;2023-09-19T03:30:57;14.00;;;7.60;;
76597;SDS011;65486;53.144;18.134;2023-09-19T03:33:27;14.20;;;7.10;;
76597;SDS011;65486;53.144;18.134;2023-09-19T03:35:54;12.80;;;7.70;;
76597;SDS011;65486;53.144;18.134;2023-09-19T03:38:21;12.70;;;7.00;;
76597;SDS011;65486;53.144;18.134;2023-09-19T03:40:48;14.40;;;7.50;;
76597;SDS011;65486;53.144;18.134;2023-09-19T03:43:15;10.70;;;6.60;;
76597;SDS011;65486;53.144;18.134;2023-09-19T03:45:45;11.30;;;6.40;;
76597;SDS011;65486;53.144;18.134;2023-09-19T03:48:13;10.00;;;5.90;;
76597;SDS011;65486;53.144;18.134;2023-09-19T03:50:40;11.90;;;6.50;;
76597;SDS011;65486;53.144;18.134;2023-09-19T03:53:07;11.80;;;6.80;;
76597;SDS011;65486;53.144;18.134;2023-09-19T03:55:34;21.00;;;6.60;;
76597;SDS011;65486;53.144;18.134;2023-09-19T03:58:02;9.60;;;6.10;;
76597;SDS011;65486;53.144;18.134;2023-09-19T04:00:31;10.30;;;6.20;;
76597;SDS011;65486;53.144;18.134;2023-09-19T04:03:01;10.70;;;5.60;;
76597;SDS011;65486;53.144;18.134;2023-09-19T04:05:32;12.00;;;6.40;;
76597;SDS011;65486;53.144;18.134;2023-09-19T04:08:00;13.00;;;6.60;;
76597;SDS011;65486;53.144;18.134;2023-09-19T04:10:28;10.30;;;6.50;;
76597;SDS011;65486;53.144;18.134;2023-09-19T04:12:55;9.20;;;5.80;;
76597;SDS011;65486;53.144;18.134;2023-09-19T04:15:23;12.30;;;6.20;;
76597;SDS011;65486;53.144;18.134;2023-09-19T04:17:53;14.50;;;5.80;;
76597;SDS011;65486;53.144;18.134;2023-09-19T04:20:20;9.90;;;6.20;;
76597;SDS011;65486;53.144;18.134;2023-09-19T04:22:50;11.80;;;5.50;;
76597;SDS011;65486;53.144;18.134;2023-09-19T04:25:19;8.60;;;5.60;;
76597;SDS011;65486;53.144;18.134;2023-09-19T04:27:46;10.10;;;5.20;;
76597;SDS011;65486;53.144;18.134;2023-09-19T04:30:14;11.90;;;6.30;;
76597;SDS011;65486;53.144;18.134;2023-09-19T04:32:41;9.70;;;5.40;;
76597;SDS011;65486;53.144;18.134;2023-09-19T04:35:09;10.10;;;5.50;;
76597;SDS011;65486;53.144;18.134;2023-09-19T04:37:38;9.90;;;5.60;;
76597;SDS011;65486;53.144;18.134;2023-09-19T04:40:07;11.80;;;5.90;;
76597;SDS011;65486;53.144;18.134;2023-09-19T04:42:40;10.80;;;5.10;;
76597;SDS011;65486;53.144;18.134;2023-09-19T04:45:08;10.90;;;5.80;;
76597;SDS011;65486;53.144;18.134;2023-09-19T04:47:37;13.50;;;5.70;;
76597;SDS011;65486;53.144;18.134;2023-09-19T04:50:08;13.30;;;6.50;;
76597;SDS011;65486;53.144;18.134;2023-09-19T04:52:43;13.50;;;6.50;;
76597;SDS011;65486;53.144;18.134;2023-09-19T04:55:12;11.70;;;6.10;;
76597;SDS011;65486;53.144;18.134;2023-09-19T04:57:44;12.00;;;6.80;;
76597;SDS011;65486;53.144;18.134;2023-09-19T05:00:12;12.20;;;6.50;;
76597;SDS011;65486;53.144;18.134;2023-09-19T05:02:41;12.80;;;6.20;;
76597;SDS011;65486;53.144;18.134;2023-09-19T05:05:09;18.40;;;7.60;;
76597;SDS011;65486;53.144;18.134;2023-09-19T05:07:38;14.20;;;6.70;;
76597;SDS011;65486;53.144;18.134;2023-09-19T05:10:09;17.50;;;7.30;;
76597;SDS011;65486;53.144;18.134;2023-09-19T05:12:39;17.20;;;6.60;;
76597;SDS011;65486;53.144;18.134;2023-09-19T05:15:07;16.90;;;7.60;;
76597;SDS011;65486;53.144;18.134;2023-09-19T05:17:37;16.90;;;7.20;;
76597;SDS011;65486;53.144;18.134;2023-09-19T05:20:05;15.30;;;7.50;;
76597;SDS011;65486;53.144;18.134;2023-09-19T05:22:57;15.30;;;7.00;;
76597;SDS011;65486;53.144;18.134;2023-09-19T05:25:39;17.70;;;7.20;;
76597;SDS011;65486;53.144;18.134;2023-09-19T05:28:07;19.90;;;8.40;;
76597;SDS011;65486;53.144;18.134;2023-09-19T05:30:36;16.30;;;7.50;;
76597;SDS011;65486;53.144;18.134;2023-09-19T05:33:03;15.30;;;7.70;;
76597;SDS011;65486;53.144;18.134;2023-09-19T05:35:33;13.80;;;6.20;;
76597;SDS011;65486;53.144;18.134;2023-09-19T05:38:00;11.90;;;6.20;;
76597;SDS011;65486;53.144;18.134;2023-09-19T05:40:27;13.80;;;6.30;;
76597;SDS011;65486;53.144;18.134;2023-09-19T05:42:58;12.20;;;6.00;;
76597;SDS011;65486;53.144;18.134;2023-09-19T05:45:25;10.60;;;5.50;;
76597;SDS011;65486;53.144;18.134;2023-09-19T05:47:54;11.00;;;5.00;;
76597;SDS011;65486;53.144;18.134;2023-09-19T05:50:27;9.00;;;4.90;;
76597;SDS011;65486;53.144;18.134;2023-09-19T05:52:54;7.80;;;4.50;;
76597;SDS011;65486;53.144;18.134;2023-09-19T05:55:22;6.20;;;4.50;;
76597;SDS011;65486;53.144;18.134;2023-09-19T05:57:52;9.00;;;5.10;;
76597;SDS011;65486;53.144;18.134;2023-09-19T06:00:20;8.10;;;4.90;;
76597;SDS011;65486;53.144;18.134;2023-09-19T06:02:53;9.10;;;5.00;;
76597;SDS011;65486;53.144;18.134;2023-09-19T06:05:23;11.20;;;5.10;;
76597;SDS011;65486;53.144;18.134;2023-09-19T06:07:51;8.10;;;4.70;;
76597;SDS011;65486;53.144;18.134;2023-09-19T06:10:20;6.90;;;4.70;;
76597;SDS011;65486;53.144;18.134;2023-09-19T06:12:48;10.10;;;5.40;;
76597;SDS011;65486;53.144;18.134;2023-09-19T06:15:15;8.30;;;4.50;;
76597;SDS011;65486;53.144;18.134;2023-09-19T06:17:49;8.80;;;5.10;;
76597;SDS011;65486;53.144;18.134;2023-09-19T06:20:17;6.30;;;4.70;;
76597;SDS011;65486;53.144;18.134;2023-09-19T06:22:47;7.70;;;4.90;;
76597;SDS011;65486;53.144;18.134;2023-09-19T06:25:14;8.90;;;4.70;;
76597;SDS011;65486;53.144;18.134;2023-09-19T06:27:46;7.30;;;4.70;;
76597;SDS011;65486;53.144;18.134;2023-09-19T06:30:15;7.70;;;4.90;;
76597;SDS011;65486;53.144;18.134;2023-09-19T06:32:57;6.20;;;4.70;;
76597;SDS011;65486;53.144;18.134;2023-09-19T06:35:26;9.40;;;5.10;;
76597;SDS011;65486;53.144;18.134;2023-09-19T06:37:57;8.90;;;5.60;;
76597;SDS011;65486;53.144;18.134;2023-09-19T06:40:25;8.60;;;5.10;;
76597;SDS011;65486;53.144;18.134;2023-09-19T06:42:54;7.40;;;4.80;;
76597;SDS011;65486;53.144;18.134;2023-09-19T06:45:23;9.00;;;5.60;;
76597;SDS011;65486;53.144;18.134;2023-09-19T06:47:57;7.50;;;5.20;;
76597;SDS011;65486;53.144;18.134;2023-09-19T06:50:27;7.60;;;5.60;;
76597;SDS011;65486;53.144;18.134;2023-09-19T06:52:54;10.00;;;6.10;;
76597;SDS011;65486;53.144;18.134;2023-09-19T06:55:23;11.40;;;5.90;;
76597;SDS011;65486;53.144;18.134;2023-09-19T06:57:52;12.50;;;7.30;;
76597;SDS011;65486;53.144;18.134;2023-09-19T07:00:21;11.40;;;6.60;;
76597;SDS011;65486;53.144;18.134;2023-09-19T07:02:59;10.40;;;6.30;;
76597;SDS011;65486;53.144;18.134;2023-09-19T07:05:35;9.00;;;5.60;;
76597;SDS011;65486;53.144;18.134;2023-09-19T07:08:09;8.40;;;5.70;;
76597;SDS011;65486;53.144;18.134;2023-09-19T07:10:39;8.70;;;5.70;;
76597;SDS011;65486;53.144;18.134;2023-09-19T07:13:21;8.90;;;6.40;;
76597;SDS011;65486;53.144;18.134;2023-09-19T07:15:49;10.20;;;6.00;;
76597;SDS011;65486;53.144;18.134;2023-09-19T07:18:16;10.80;;;6.90;;
76597;SDS011;65486;53.144;18.134;2023-09-19T07:20:44;8.70;;;6.30;;
76597;SDS011;65486;53.144;18.134;2023-09-19T07:23:17;9.00;;;5.60;;
76597;SDS011;65486;53.144;18.134;2023-09-19T07:25:56;9.70;;;6.00;;
76597;SDS011;65486;53.144;18.134;2023-09-19T07:28:25;8.00;;;6.20;;
76597;SDS011;65486;53.144;18.134;2023-09-19T07:30:55;8.90;;;6.10;;
76597;SDS011;65486;53.144;18.134;2023-09-19T07:33:22;8.30;;;5.10;;
76597;SDS011;65486;53.144;18.134;2023-09-19T07:35:51;9.70;;;6.10;;
76597;SDS011;65486;53.144;18.134;2023-09-19T07:38:18;9.50;;;6.00;;
76597;SDS011;65486;53.144;18.134;2023-09-19T07:40:45;9.30;;;6.10;;
76597;SDS011;65486;53.144;18.134;2023-09-19T07:43:12;8.00;;;5.70;;
76597;SDS011;65486;53.144;18.134;2023-09-19T07:45:42;11.60;;;6.10;;
76597;SDS011;65486;53.144;18.134;2023-09-19T07:48:09;8.70;;;5.90;;
76597;SDS011;65486;53.144;18.134;2023-09-19T07:50:41;8.30;;;6.10;;
76597;SDS011;65486;53.144;18.134;2023-09-19T07:53:10;7.30;;;6.00;;
76597;SDS011;65486;53.144;18.134;2023-09-19T07:55:40;11.10;;;6.10;;
76597;SDS011;65486;53.144;18.134;2023-09-19T07:58:09;8.90;;;5.20;;
76597;SDS011;65486;53.144;18.134;2023-09-19T08:00:36;9.20;;;6.20;;
76597;SDS011;65486;53.144;18.134;2023-09-19T08:03:03;9.20;;;5.80;;
76597;SDS011;65486;53.144;18.134;2023-09-19T08:05:32;14.60;;;6.80;;
76597;SDS011;65486;53.144;18.134;2023-09-19T08:08:01;11.30;;;5.70;;
76597;SDS011;65486;53.144;18.134;2023-09-19T08:10:29;8.80;;;6.10;;
76597;SDS011;65486;53.144;18.134;2023-09-19T08:13:01;9.50;;;5.20;;
76597;SDS011;65486;53.144;18.134;2023-09-19T08:15:29;6.90;;;5.40;;
76597;SDS011;65486;53.144;18.134;2023-09-19T08:17:56;9.80;;;6.00;;
76597;SDS011;65486;53.144;18.134;2023-09-19T08:20:22;9.10;;;5.80;;
76597;SDS011;65486;53.144;18.134;2023-09-19T08:22:50;9.30;;;6.10;;
76597;SDS011;65486;53.144;18.134;2023-09-19T08:25:21;9.20;;;6.40;;
76597;SDS011;65486;53.144;18.134;2023-09-19T08:27:49;8.90;;;6.20;;
76597;SDS011;65486;53.144;18.134;2023-09-19T08:30:21;7.80;;;5.70;;
76597;SDS011;65486;53.144;18.134;2023-09-19T08:32:50;6.90;;;5.40;;
76597;SDS011;65486;53.144;18.134;2023-09-19T08:35:18;9.00;;;6.50;;
76597;SDS011;65486;53.144;18.134;2023-09-19T08:37:46;6.80;;;4.90;;
76597;SDS011;65486;53.144;18.134;2023-09-19T08:40:13;6.70;;;4.90;;
76597;SDS011;65486;53.144;18.134;2023-09-19T08:45:20;9.30;;;5.30;;
76597;SDS011;65486;53.144;18.134;2023-09-19T08:50:33;7.20;;;5.30;;
76597;SDS011;65486;53.144;18.134;2023-09-19T08:53:10;7.10;;;5.00;;
76597;SDS011;65486;53.144;18.134;2023-09-19T08:55:44;9.40;;;5.20;;
76597;SDS011;65486;53.144;18.134;2023-09-19T08:58:16;6.00;;;4.60;;
76597;SDS011;65486;53.144;18.134;2023-09-19T09:00:56;7.80;;;4.80;;
76597;SDS011;65486;53.144;18.134;2023-09-19T09:03:30;5.80;;;4.00;;
76597;SDS011;65486;53.144;18.134;2023-09-19T09:06:08;6.20;;;4.20;;
76597;SDS011;65486;53.144;18.134;2023-09-19T09:08:38;7.90;;;4.20;;
76597;SDS011;65486;53.144;18.134;2023-09-19T09:11:15;7.00;;;4.00;;
76597;SDS011;65486;53.144;18.134;2023-09-19T09:13:44;6.00;;;3.80;;
76597;SDS011;65486;53.144;18.134;2023-09-19T09:16:13;7.40;;;4.10;;
76597;SDS011;65486;53.144;18.134;2023-09-19T09:18:46;5.40;;;3.60;;
76597;SDS011;65486;53.144;18.134;2023-09-19T09:21:22;8.60;;;3.70;;
76597;SDS011;65486;53.144;18.134;2023-09-19T09:23:52;6.20;;;2.70;;
76597;SDS011;65486;53.144;18.134;2023-09-19T09:34:46;5.70;;;2.70;;
76597;SDS011;65486;53.144;18.134;2023-09-19T09:37:16;4.50;;;2.90;;
76597;SDS011;65486;53.144;18.134;2023-09-19T09:39:51;5.00;;;2.50;;
76597;SDS011;65486;53.144;18.134;2023-09-19T09:42:43;8.20;;;2.90;;
76597;SDS011;65486;53.144;18.134;2023-09-19T09:45:17;6.00;;;2.50;;
76597;SDS011;65486;53.144;18.134;2023-09-19T09:48:24;3.90;;;2.70;;
76597;SDS011;65486;53.144;18.134;2023-09-19T09:50:58;3.40;;;2.60;;
76597;SDS011;65486;53.144;18.134;2023-09-19T09:53:31;3.90;;;2.30;;
76597;SDS011;65486;53.144;18.134;2023-09-19T09:56:05;5.10;;;2.10;;
76597;SDS011;65486;53.144;18.134;2023-09-19T09:58:50;5.40;;;2.90;;
76597;SDS011;65486;53.144;18.134;2023-09-19T10:01:22;4.00;;;2.00;;
76597;SDS011;65486;53.144;18.134;2023-09-19T10:03:59;4.60;;;2.20;;
76597;SDS011;65486;53.144;18.134;2023-09-19T10:06:27;4.80;;;1.90;;
76597;SDS011;65486;53.144;18.134;2023-09-19T10:09:15;7.10;;;1.90;;
76597;SDS011;65486;53.144;18.134;2023-09-19T10:12:05;3.90;;;1.90;;
76597;SDS011;65486;53.144;18.134;2023-09-19T10:14:37;3.50;;;1.70;;
76597;SDS011;65486;53.144;18.134;2023-09-19T10:17:10;4.90;;;2.10;;
76597;SDS011;65486;53.144;18.134;2023-09-19T10:19:54;3.30;;;1.90;;
76597;SDS011;65486;53.144;18.134;2023-09-19T10:22:33;5.00;;;1.60;;
76597;SDS011;65486;53.144;18.134;2023-09-19T10:25:05;4.10;;;1.70;;
76597;SDS011;65486;53.144;18.134;2023-09-19T10:27:35;4.70;;;1.70;;
76597;SDS011;65486;53.144;18.134;2023-09-19T10:30:06;3.70;;;1.60;;
76597;SDS011;65486;53.144;18.134;2023-09-19T10:32:37;3.60;;;1.50;;
76597;SDS011;65486;53.144;18.134;2023-09-19T10:35:07;6.60;;;1.80;;
76597;SDS011;65486;53.144;18.134;2023-09-19T10:37:35;4.60;;;1.30;;
76597;SDS011;65486;53.144;18.134;2023-09-19T10:40:05;5.10;;;1.50;;
76597;SDS011;65486;53.144;18.134;2023-09-19T10:42:52;5.00;;;2.00;;
76597;SDS011;65486;53.144;18.134;2023-09-19T10:45:24;2.60;;;1.60;;
76597;SDS011;65486;53.144;18.134;2023-09-19T10:47:52;2.30;;;1.30;;
76597;SDS011;65486;53.144;18.134;2023-09-19T10:50:21;3.50;;;1.90;;
76597;SDS011;65486;53.144;18.134;2023-09-19T10:52:48;3.30;;;1.60;;
76597;SDS011;65486;53.144;18.134;2023-09-19T10:55:20;5.30;;;1.60;;
76597;SDS011;65486;53.144;18.134;2023-09-19T10:57:50;2.60;;;1.50;;
76597;SDS011;65486;53.144;18.134;2023-09-19T11:00:20;3.00;;;1.10;;
76597;SDS011;65486;53.144;18.134;2023-09-19T11:05:39;3.00;;;1.60;;
76597;SDS011;65486;53.144;18.134;2023-09-19T11:08:08;5.10;;;1.40;;
76597;SDS011;65486;53.144;18.134;2023-09-19T11:10:53;3.00;;;1.50;;
76597;SDS011;65486;53.144;18.134;2023-09-19T11:13:28;2.60;;;1.30;;
76597;SDS011;65486;53.144;18.134;2023-09-19T11:27:09;4.20;;;1.80;;
76597;SDS011;65486;53.144;18.134;2023-09-19T11:29:42;3.50;;;1.30;;
76597;SDS011;65486;53.144;18.134;2023-09-19T11:32:10;3.70;;;1.50;;
76597;SDS011;65486;53.144;18.134;2023-09-19T11:34:44;4.30;;;1.50;;
76597;SDS011;65486;53.144;18.134;2023-09-19T11:40:14;2.20;;;1.10;;
76597;SDS011;65486;53.144;18.134;2023-09-19T11:42:48;3.70;;;1.40;;
76597;SDS011;65486;53.144;18.134;2023-09-19T11:48:15;5.30;;;1.00;;
76597;SDS011;65486;53.144;18.134;2023-09-19T11:50:45;5.20;;;1.10;;
76597;SDS011;65486;53.144;18.134;2023-09-19T11:53:15;3.30;;;1.00;;
76597;SDS011;65486;53.144;18.134;2023-09-19T11:55:46;4.20;;;1.20;;
76597;SDS011;65486;53.144;18.134;2023-09-19T11:58:14;4.30;;;1.40;;
76597;SDS011;65486;53.144;18.134;2023-09-19T12:00:45;4.60;;;1.50;;
76597;SDS011;65486;53.144;18.134;2023-09-19T12:03:13;4.10;;;1.50;;
76597;SDS011;65486;53.144;18.134;2023-09-19T12:05:46;4.00;;;1.20;;
76597;SDS011;65486;53.144;18.134;2023-09-19T12:08:16;3.80;;;1.50;;
76597;SDS011;65486;53.144;18.134;2023-09-19T12:10:48;3.00;;;1.40;;
76597;SDS011;65486;53.144;18.134;2023-09-19T12:13:19;4.00;;;1.40;;
76597;SDS011;65486;53.144;18.134;2023-09-19T12:15:47;2.50;;;1.20;;
76597;SDS011;65486;53.144;18.134;2023-09-19T12:18:27;4.70;;;1.60;;
76597;SDS011;65486;53.144;18.134;2023-09-19T12:20:56;4.90;;;1.50;;
76597;SDS011;65486;53.144;18.134;2023-09-19T12:23:25;5.40;;;1.50;;
76597;SDS011;65486;53.144;18.134;2023-09-19T12:25:52;3.10;;;1.40;;
76597;SDS011;65486;53.144;18.134;2023-09-19T12:28:27;2.90;;;1.20;;
76597;SDS011;65486;53.144;18.134;2023-09-19T12:30:57;3.20;;;1.10;;
76597;SDS011;65486;53.144;18.134;2023-09-19T12:33:34;4.20;;;1.40;;
76597;SDS011;65486;53.144;18.134;2023-09-19T12:36:19;4.90;;;1.30;;
76597;SDS011;65486;53.144;18.134;2023-09-19T12:39:12;3.20;;;1.40;;
76597;SDS011;65486;53.144;18.134;2023-09-19T12:41:50;4.60;;;1.40;;
76597;SDS011;65486;53.144;18.134;2023-09-19T12:44:20;3.80;;;1.10;;
76597;SDS011;65486;53.144;18.134;2023-09-19T12:46:48;2.90;;;1.10;;
76597;SDS011;65486;53.144;18.134;2023-09-19T12:49:17;5.30;;;1.10;;
76597;SDS011;65486;53.144;18.134;2023-09-19T12:51:51;3.70;;;1.30;;
76597;SDS011;65486;53.144;18.134;2023-09-19T12:54:21;5.30;;;1.30;;
76597;SDS011;65486;53.144;18.134;2023-09-19T12:56:52;3.60;;;1.30;;
76597;SDS011;65486;53.144;18.134;2023-09-19T12:59:28;5.20;;;2.20;;
76597;SDS011;65486;53.144;18.134;2023-09-19T13:02:03;3.90;;;1.40;;
76597;SDS011;65486;53.144;18.134;2023-09-19T13:04:34;3.70;;;1.80;;
76597;SDS011;65486;53.144;18.134;2023-09-19T13:07:07;2.80;;;1.50;;
76597;SDS011;65486;53.144;18.134;2023-09-19T13:09:36;5.00;;;1.70;;
76597;SDS011;65486;53.144;18.134;2023-09-19T13:12:05;3.50;;;1.20;;
76597;SDS011;65486;53.144;18.134;2023-09-19T13:15:10;5.50;;;1.70;;
76597;SDS011;65486;53.144;18.134;2023-09-19T13:17:42;2.40;;;1.00;;
76597;SDS011;65486;53.144;18.134;2023-09-19T13:20:20;5.30;;;1.90;;
76597;SDS011;65486;53.144;18.134;2023-09-19T13:22:59;4.60;;;1.80;;
76597;SDS011;65486;53.144;18.134;2023-09-19T13:25:38;4.50;;;1.70;;
76597;SDS011;65486;53.144;18.134;2023-09-19T13:28:10;4.20;;;1.80;;
76597;SDS011;65486;53.144;18.134;2023-09-19T13:30:38;4.40;;;1.90;;
76597;SDS011;65486;53.144;18.134;2023-09-19T13:33:09;4.50;;;1.40;;
76597;SDS011;65486;53.144;18.134;2023-09-19T13:35:45;5.70;;;1.80;;
76597;SDS011;65486;53.144;18.134;2023-09-19T13:38:13;3.70;;;1.70;;
76597;SDS011;65486;53.144;18.134;2023-09-19T13:40:41;3.50;;;1.80;;
76597;SDS011;65486;53.144;18.134;2023-09-19T13:43:11;4.20;;;1.80;;
76597;SDS011;65486;53.144;18.134;2023-09-19T13:45:40;6.00;;;2.10;;
76597;SDS011;65486;53.144;18.134;2023-09-19T13:48:12;2.60;;;1.50;;
76597;SDS011;65486;53.144;18.134;2023-09-19T13:50:40;4.80;;;2.30;;
76597;SDS011;65486;53.144;18.134;2023-09-19T13:53:10;3.50;;;1.70;;
76597;SDS011;65486;53.144;18.134;2023-09-19T13:55:40;3.10;;;1.50;;
76597;SDS011;65486;53.144;18.134;2023-09-19T13:58:07;3.00;;;1.30;;
76597;SDS011;65486;53.144;18.134;2023-09-19T14:00:37;4.20;;;1.70;;
76597;SDS011;65486;53.144;18.134;2023-09-19T14:03:06;6.30;;;1.70;;
76597;SDS011;65486;53.144;18.134;2023-09-19T14:05:33;3.90;;;1.70;;
76597;SDS011;65486;53.144;18.134;2023-09-19T14:08:01;3.90;;;2.20;;
76597;SDS011;65486;53.144;18.134;2023-09-19T14:10:31;4.70;;;1.90;;
76597;SDS011;65486;53.144;18.134;2023-09-19T14:12:58;6.30;;;2.20;;
76597;SDS011;65486;53.144;18.134;2023-09-19T14:15:28;4.40;;;2.40;;
76597;SDS011;65486;53.144;18.134;2023-09-19T14:17:59;3.40;;;1.60;;
76597;SDS011;65486;53.144;18.134;2023-09-19T14:20:27;3.70;;;1.70;;
76597;SDS011;65486;53.144;18.134;2023-09-19T14:23:00;4.10;;;2.10;;
76597;SDS011;65486;53.144;18.134;2023-09-19T14:25:34;5.90;;;2.00;;
76597;SDS011;65486;53.144;18.134;2023-09-19T14:28:03;4.60;;;1.70;;
76597;SDS011;65486;53.144;18.134;2023-09-19T14:30:31;4.90;;;2.00;;
76597;SDS011;65486;53.144;18.134;2023-09-19T14:33:01;4.40;;;2.00;;
76597;SDS011;65486;53.144;18.134;2023-09-19T14:35:30;4.80;;;1.80;;
76597;SDS011;65486;53.144;18.134;2023-09-19T14:37:57;4.10;;;1.60;;
76597;SDS011;65486;53.144;18.134;2023-09-19T14:40:23;3.30;;;1.90;;
76597;SDS011;65486;53.144;18.134;2023-09-19T14:42:52;5.40;;;2.00;;
76597;SDS011;65486;53.144;18.134;2023-09-19T14:45:20;5.00;;;2.20;;
76597;SDS011;65486;53.144;18.134;2023-09-19T14:47:48;3.90;;;1.70;;
76597;SDS011;65486;53.144;18.134;2023-09-19T14:50:22;5.40;;;1.90;;
76597;SDS011;65486;53.144;18.134;2023-09-19T14:52:50;5.60;;;2.00;;
76597;SDS011;65486;53.144;18.134;2023-09-19T14:55:18;8.10;;;2.60;;
76597;SDS011;65486;53.144;18.134;2023-09-19T14:57:48;4.50;;;2.10;;
76597;SDS011;65486;53.144;18.134;2023-09-19T15:00:18;4.90;;;2.40;;
76597;SDS011;65486;53.144;18.134;2023-09-19T15:02:47;5.20;;;1.80;;
76597;SDS011;65486;53.144;18.134;2023-09-19T15:05:16;3.90;;;1.80;;
76597;SDS011;65486;53.144;18.134;2023-09-19T15:07:47;5.90;;;2.20;;
76597;SDS011;65486;53.144;18.134;2023-09-19T15:10:17;5.00;;;2.70;;
76597;SDS011;65486;53.144;18.134;2023-09-19T15:12:46;4.60;;;2.30;;
76597;SDS011;65486;53.144;18.134;2023-09-19T15:15:15;4.90;;;2.10;;
76597;SDS011;65486;53.144;18.134;2023-09-19T15:17:45;3.10;;;1.60;;
76597;SDS011;65486;53.144;18.134;2023-09-19T15:20:14;4.60;;;2.20;;
76597;SDS011;65486;53.144;18.134;2023-09-19T15:22:41;4.70;;;2.40;;
76597;SDS011;65486;53.144;18.134;2023-09-19T15:25:09;4.60;;;2.40;;
76597;SDS011;65486;53.144;18.134;2023-09-19T15:27:37;4.60;;;2.50;;
76597;SDS011;65486;53.144;18.134;2023-09-19T15:30:05;5.60;;;2.20;;
76597;SDS011;65486;53.144;18.134;2023-09-19T15:32:33;8.20;;;2.20;;
76597;SDS011;65486;53.144;18.134;2023-09-19T15:35:00;5.40;;;2.40;;
76597;SDS011;65486;53.144;18.134;2023-09-19T15:37:27;4.40;;;2.10;;